Eferding, Austria
Current Conditions -  °F | °C
As of 7:20 PM on Friday 31 Oct 2014 (Local Time) from LOWL Reporting Station
Broken Clouds Broken Clouds  
Wind Chill: 46°   Ceiling: 30000
Heat Index: 46°   Visibility: 5mi
Dew Point: 43°   Wind: 3mph
Humidity: 87%   Direction: 290°WNW
Pressure: 30.33"   Gusts: NA
Location:  48.31°N, 14.02°E
Report Text: LOWL 311720Z 29003KT 8000 BKN300 08/06 Q1027 NOSIG
Loading
Personal Weather Stations






























Interactive Weather Map
Tropical Storm Tracking
New forecast layout! Learn more

10-Day Weather Forecast

Advertisements
Track Severe Weather on mobile